Página principal
METAR-TAF:

METAR-TAF

Aeroportos :

Ketchikan, Alasca, Estados Unidos

latitude: 55-21-20N, longitude: 131-42-49W, altura: 27 m

Observação actual do tempo

O boletim foi feito há 26 minutos, às 11:53 UTC
Vento 4 kt de noroeste
Temperatura 3°C
Humidade 93%
Pressão 1021 hPa
Visibilidade: 16.1 km
Encobertoa uma altura de 4000 ft

METAR: PAKT 151153Z AUTO 31004KT 10SM OVC040 03/02 A3015 RMK AO2 SLP212 60000 70006 T00280017 10039 20022 51014 TSNO

Hora: 04:19 (12:19 UTC)

Previsão

O boletim foi feito há 55 minutos, às 11:24 UTC
Previsão válida de 15 às 12 UTC a 16 às 12 UTC
Vento 6 kt de noroeste
Visibilidade: 10 km
Nuvens fragmentadasa uma altura de 10000 ft
A partir de 15 às 2100 UTC
Vento 10 kt de noroeste
Visibilidade: 10 km
Céu limpo

TAF: PAKT 151124Z 1512/1612 32006KT P6SM BKN100 FM152100 32010KT P6SM SKC AMD LTD TO CLD VIS AND WIND 1512/1515

Observações e previsões do tempo de mais de 4000 aeroportos (mensagens METAR e TAF).

As estações disponíveis são os pontos amarelos e vermelhos sobre o mapa.

Mova o rato sobre o mapa para ver o nome da estação.

Depois clique no ponto para visualizar as observações e previsões meteorológicas.

Para alterar o mapa : clique nos botões verdes com uma cruz preta para aumentar o zoom; no botão verde com uma pitada de zoom; ou nas setas verdes para mapas adjacentes.


METAR-TAF: